Atlantic Island — C4VM2 — position and weather

sailwx.info

Track history (hours):
 
Tides and Currents Weather Stations Pressure Air Temp Water Temp Dewpoint Dewpoint Depression Visibility Wind Speed Wind Dir Waves Ship Positions

Atlantic Island

Last reported at 2017-Oct-15 01:02 UTC. Time now 2017-Oct-18 06:02 UTC.
Position N 37°45' W 000°21'.

Length 95 m; draft 5.3 m.

Type: Cargo ship. MMSI: 210754000.

Date/timePositionNaut miles runAvg speedWind from/ knotsBaromVisibWave heightAir tempDewpointWater temp
2017-Oct-15 01:02N 37°45' W 000°21'110.0
2017-Oct-15 00:59N 37°44' W 000°21'510.0
2017-Oct-15 00:30N 37°40' W 000°25'510.0
2017-Oct-15 00:00N 37°36' W 000°28'510.1
2017-Oct-14 23:30N 37°32' W 000°32'810.3
2017-Oct-14 22:44N 37°27' W 000°39'310.4
2017-Oct-14 22:28N 37°25' W 000°42'1010.3
2017-Oct-14 21:32N 37°18' W 000°51'110.2
2017-Oct-14 21:23N 37°17' W 000°52'410.2
2017-Oct-14 21:00N 37°15' W 000°56'610.1
2017-Oct-14 20:22N 37°11' W 001°02'4 9.9
2017-Oct-14 19:59N 37°08' W 001°05'6 9.9
2017-Oct-14 19:22N 37°04' W 001°11'9 9.8
2017-Oct-14 18:30N 36°59' W 001°19'19510.1
2017-Oct-13 23:07N 36°00' W 005°11'111.2
2017-Oct-13 23:00N 35°60' W 005°13'611.2
2017-Oct-13 22:30N 35°59' W 005°20'510.9
2017-Oct-13 22:00N 35°58' W 005°26'510.3
2017-Oct-13 21:30N 35°56' W 005°32'5 9.4
2017-Oct-13 21:00N 35°55' W 005°38'4 8.5
2017-Oct-13 20:30N 35°55' W 005°43'79 9.6
2017-Oct-13 12:14N 36°09' W 007°19'2 9.8
2017-Oct-13 12:00N 36°09' W 007°22'7 9.6
2017-Oct-13 11:15N 36°11' W 007°31'6 8.9
2017-Oct-13 10:36N 36°13' W 007°38'1 8.6
2017-Oct-13 10:30N 36°13' W 007°39'5 9.4
2017-Oct-13 09:58N 36°14' W 007°45'510.0
2017-Oct-13 09:29N 36°16' W 007°50'5 9.9
2017-Oct-13 09:00N 36°17' W 007°56'6 9.9
2017-Oct-13 08:21N 36°19' W 008°04'710.2
2017-Oct-13 07:39N 36°20' W 008°12'110.1
2017-Oct-13 07:30N 36°21' W 008°14'510.1
2017-Oct-13 07:00N 36°22' W 008°20'510.1
2017-Oct-13 06:30N 36°23' W 008°26'510.1
2017-Oct-13 06:00N 36°25' W 008°32'610.2
2017-Oct-13 05:25N 36°26' W 008°40'6 9.8
2017-Oct-13 04:46N 36°28' W 008°47'4 9.7
2017-Oct-13 04:19N 36°29' W 008°52'310.1
2017-Oct-13 04:00N 36°30' W 008°56'510.2
2017-Oct-13 03:30N 36°31' W 009°03'910.8
2017-Oct-13 02:41N 36°33' W 009°13'510.1
2017-Oct-13 02:12N 36°35' W 009°19'211.0
2017-Oct-13 01:58N 36°37' W 009°21'1610.2
2017-Oct-13 00:25N 36°50' W 009°33'610.8
2017-Oct-12 23:52N 36°55' W 009°34'3710.2
2017-Oct-12 20:13N 37°32' W 009°22'210.7
2017-Oct-12 20:00N 37°34' W 009°21'510.8
2017-Oct-12 19:30N 37°39' W 009°19'510.3
2017-Oct-12 19:00N 37°44' W 009°17'510.1
2017-Oct-12 18:30N 37°48' W 009°15'510.3
2017-Oct-12 18:00N 37°53' W 009°13'510.4
2017-Oct-12 17:31N 37°58' W 009°11'510.5
2017-Oct-12 17:01N 38°03' W 009°09'510.2
2017-Oct-12 16:30N 38°08' W 009°07'510.1
2017-Oct-12 16:00N 38°13' W 009°05'510.3
2017-Oct-12 15:31N 38°18' W 009°03'510.2
2017-Oct-12 15:00N 38°23' W 009°01'510.3
2017-Oct-12 14:30N 38°27' W 008°58'5 9.4
2017-Oct-12 14:00N 38°31' W 008°54'3 5.4
2017-Oct-12 13:30N 38°30' W 008°51'0 0.0
2017-Oct-12 09:57N 38°30' W 008°51'0 0.0
2017-Oct-12 09:24N 38°30' W 008°51'0 0.0
2017-Oct-12 09:00N 38°30' W 008°51'0 0.0
2017-Oct-12 08:30N 38°30' W 008°51'0 0.0
2017-Oct-12 07:57N 38°30' W 008°51'0 0.0
2017-Oct-12 07:24N 38°30' W 008°51'0 0.0
2017-Oct-12 06:51N 38°30' W 008°51'0 0.0
2017-Oct-12 06:27N 38°30' W 008°51'0 0.0
2017-Oct-12 05:57N 38°30' W 008°51'0 0.0
2017-Oct-12 05:27N 38°30' W 008°51'0 0.0
2017-Oct-12 05:00N 38°30' W 008°51'0 0.0
2017-Oct-12 04:15N 38°30' W 008°51'0 0.0
2017-Oct-12 03:54N 38°30' W 008°51'0 0.0
2017-Oct-12 02:36N 38°30' W 008°51'0 0.0
2017-Oct-12 02:24N 38°30' W 008°51'0 0.0
2017-Oct-12 00:54N 38°30' W 008°51'0 0.0
2017-Oct-12 00:27N 38°30' W 008°51'0 0.0
2017-Oct-11 23:54N 38°30' W 008°51'0 0.0
2017-Oct-11 23:30N 38°30' W 008°51'0 0.0
2017-Oct-11 23:00N 38°30' W 008°51'0 0.0
2017-Oct-11 22:30N 38°30' W 008°51'0 0.0
2017-Oct-11 22:00N 38°30' W 008°51'0 0.0
2017-Oct-11 21:27N 38°30' W 008°51'0 0.0
2017-Oct-11 21:00N 38°30' W 008°51'0 0.0
2017-Oct-11 20:27N 38°30' W 008°51'0 0.0
2017-Oct-11 19:56N 38°30' W 008°51'0 0.0
2017-Oct-11 19:17N 38°30' W 008°51'0 0.0
2017-Oct-11 18:59N 38°30' W 008°51'0 0.0
2017-Oct-11 18:29N 38°30' W 008°51'0 0.0
2017-Oct-11 17:59N 38°30' W 008°51'0 0.0
2017-Oct-11 17:29N 38°30' W 008°51'0 0.0
2017-Oct-11 16:59N 38°30' W 008°51'3 0.2
2017-Oct-11 00:00N 38°31' W 008°54'0 0.1
2017-Oct-10 23:30N 38°31' W 008°54'0 0.0
2017-Oct-10 23:00N 38°31' W 008°54'0 0.0
2017-Oct-10 22:30N 38°31' W 008°54'0 0.0
2017-Oct-10 21:57N 38°31' W 008°54'0 0.0
2017-Oct-10 21:27N 38°31' W 008°54'0 0.0
2017-Oct-10 21:00N 38°31' W 008°54'0 0.0
2017-Oct-10 20:30N 38°31' W 008°54'0 0.0
2017-Oct-10 20:00N 38°31' W 008°54'0 0.0
2017-Oct-10 19:30N 38°31' W 008°54'3 6.3
2017-Oct-10 19:01N 38°29' W 008°57'4 8.2
2017-Oct-10 18:31N 38°25' W 008°59'2 3.8
2017-Oct-10 18:01N 38°23' W 008°60'510.0
2017-Oct-10 17:31N 38°18' W 009°01'510.6
2017-Oct-10 17:01N 38°13' W 009°03'510.9
2017-Oct-10 16:31N 38°08' W 009°04'510.5
2017-Oct-10 16:01N 38°03' W 009°05'510.4
2017-Oct-10 15:30N 37°57' W 009°07'510.4
2017-Oct-10 15:01N 37°52' W 009°08'1010.5
2017-Oct-10 14:01N 37°42' W 009°10'510.8
2017-Oct-10 13:31N 37°37' W 009°12'510.9
2017-Oct-10 13:00N 37°31' W 009°13'510.4
2017-Oct-10 12:30N 37°26' W 009°14'510.3
2017-Oct-10 12:01N 37°21' W 009°16'510.3
2017-Oct-10 11:31N 37°16' W 009°17'510.4
2017-Oct-10 11:00N 37°11' W 009°18'510.4
2017-Oct-10 10:31N 37°06' W 009°19'510.8
2017-Oct-10 10:01N 37°01' W 009°20'510.6
2017-Oct-10 09:31N 36°55' W 009°18'510.1
2017-Oct-10 09:01N 36°51' W 009°15'5 9.8
2017-Oct-10 08:30N 36°48' W 009°11'510.8
2017-Oct-10 08:00N 36°44' W 009°06'510.8
2017-Oct-10 07:30N 36°42' W 008°59'611.0
2017-Oct-10 07:00N 36°40' W 008°53'510.8
2017-Oct-10 06:30N 36°39' W 008°47'511.0
2017-Oct-10 06:01N 36°37' W 008°40'611.1
2017-Oct-10 05:30N 36°36' W 008°33'611.0
2017-Oct-10 04:56N 36°34' W 008°26'511.1
2017-Oct-10 04:30N 36°33' W 008°20'511.0
2017-Oct-10 04:00N 36°32' W 008°13'610.9
2017-Oct-10 03:30N 36°30' W 008°07'511.1
2017-Oct-10 03:00N 36°29' W 008°00'611.3
2017-Oct-10 02:30N 36°27' W 007°53'611.1
2017-Oct-10 01:59N 36°26' W 007°46'611.2
2017-Oct-10 01:27N 36°24' W 007°39'511.2
2017-Oct-10 00:59N 36°23' W 007°33'  
2017-Oct-07 10:58N 37°23' W 000°52'510.0
2017-Oct-07 10:29N 37°26' W 000°48'710.0
2017-Oct-07 09:49N 37°30' W 000°41'3 9.8
2017-Oct-07 09:28N 37°32' W 000°38'4 9.6
2017-Oct-07 09:00N 37°35' W 000°34'5 9.7
2017-Oct-07 08:30N 37°39' W 000°30'5 9.8
2017-Oct-07 08:00N 37°43' W 000°27'65 1.6
2017-Oct-05 14:47N 38°35' E 000°22'411.6
2017-Oct-05 14:27N 38°32' E 000°19'511.4
2017-Oct-05 14:00N 38°28' E 000°16'5310.9
2017-Oct-05 09:09N 37°44' W 000°22'110.3
2017-Oct-05 09:00N 37°43' W 000°23'510.8
2017-Oct-05 08:30N 37°38' W 000°26'510.7
2017-Oct-05 08:00N 37°34' W 000°31'610.8
2017-Oct-05 07:29N 37°30' W 000°36'510.7
2017-Oct-05 06:58N 37°26' W 000°41'510.6
2017-Oct-05 06:30N 37°23' W 000°45'610.6
2017-Oct-05 05:57N 37°19' W 000°51'510.5
2017-Oct-05 05:29N 37°16' W 000°55'  
Track history (hours):
 
Tides and Currents Weather Stations Pressure Air Temp Water Temp Dewpoint Dewpoint Depression Visibility Wind Speed Wind Dir Waves Ship Positions

Atlantic Island

Last reported at 2017-Oct-15 01:02 UTC. Time now 2017-Oct-18 06:02 UTC.
Position N 37°45' W 000°21'.

Length 95 m; draft 5.3 m.

Type: Cargo ship. MMSI: 210754000.

Date/timePositionNaut miles runAvg speedWind from/ knotsBaromVisibWave heightAir tempDewpointWater temp
2017-Oct-15 01:02N 37°45' W 000°21'110.0
2017-Oct-15 00:59N 37°44' W 000°21'510.0
2017-Oct-15 00:30N 37°40' W 000°25'510.0
2017-Oct-15 00:00N 37°36' W 000°28'510.1
2017-Oct-14 23:30N 37°32' W 000°32'810.3
2017-Oct-14 22:44N 37°27' W 000°39'310.4
2017-Oct-14 22:28N 37°25' W 000°42'1010.3
2017-Oct-14 21:32N 37°18' W 000°51'110.2
2017-Oct-14 21:23N 37°17' W 000°52'410.2
2017-Oct-14 21:00N 37°15' W 000°56'610.1
2017-Oct-14 20:22N 37°11' W 001°02'4 9.9
2017-Oct-14 19:59N 37°08' W 001°05'6 9.9
2017-Oct-14 19:22N 37°04' W 001°11'9 9.8
2017-Oct-14 18:30N 36°59' W 001°19'19510.1
2017-Oct-13 23:07N 36°00' W 005°11'111.2
2017-Oct-13 23:00N 35°60' W 005°13'611.2
2017-Oct-13 22:30N 35°59' W 005°20'510.9
2017-Oct-13 22:00N 35°58' W 005°26'510.3
2017-Oct-13 21:30N 35°56' W 005°32'5 9.4
2017-Oct-13 21:00N 35°55' W 005°38'4 8.5
2017-Oct-13 20:30N 35°55' W 005°43'79 9.6
2017-Oct-13 12:14N 36°09' W 007°19'2 9.8
2017-Oct-13 12:00N 36°09' W 007°22'7 9.6
2017-Oct-13 11:15N 36°11' W 007°31'6 8.9
2017-Oct-13 10:36N 36°13' W 007°38'1 8.6
2017-Oct-13 10:30N 36°13' W 007°39'5 9.4
2017-Oct-13 09:58N 36°14' W 007°45'510.0
2017-Oct-13 09:29N 36°16' W 007°50'5 9.9
2017-Oct-13 09:00N 36°17' W 007°56'6 9.9
2017-Oct-13 08:21N 36°19' W 008°04'710.2
2017-Oct-13 07:39N 36°20' W 008°12'110.1
2017-Oct-13 07:30N 36°21' W 008°14'510.1
2017-Oct-13 07:00N 36°22' W 008°20'510.1
2017-Oct-13 06:30N 36°23' W 008°26'510.1
2017-Oct-13 06:00N 36°25' W 008°32'610.2
2017-Oct-13 05:25N 36°26' W 008°40'6 9.8
2017-Oct-13 04:46N 36°28' W 008°47'4 9.7
2017-Oct-13 04:19N 36°29' W 008°52'310.1
2017-Oct-13 04:00N 36°30' W 008°56'510.2
2017-Oct-13 03:30N 36°31' W 009°03'910.8
2017-Oct-13 02:41N 36°33' W 009°13'510.1
2017-Oct-13 02:12N 36°35' W 009°19'211.0
2017-Oct-13 01:58N 36°37' W 009°21'1610.2
2017-Oct-13 00:25N 36°50' W 009°33'610.8
2017-Oct-12 23:52N 36°55' W 009°34'3710.2
2017-Oct-12 20:13N 37°32' W 009°22'210.7
2017-Oct-12 20:00N 37°34' W 009°21'510.8
2017-Oct-12 19:30N 37°39' W 009°19'510.3
2017-Oct-12 19:00N 37°44' W 009°17'510.1
2017-Oct-12 18:30N 37°48' W 009°15'510.3
2017-Oct-12 18:00N 37°53' W 009°13'510.4
2017-Oct-12 17:31N 37°58' W 009°11'510.5
2017-Oct-12 17:01N 38°03' W 009°09'510.2
2017-Oct-12 16:30N 38°08' W 009°07'510.1
2017-Oct-12 16:00N 38°13' W 009°05'510.3
2017-Oct-12 15:31N 38°18' W 009°03'510.2
2017-Oct-12 15:00N 38°23' W 009°01'510.3
2017-Oct-12 14:30N 38°27' W 008°58'5 9.4
2017-Oct-12 14:00N 38°31' W 008°54'3 5.4
2017-Oct-12 13:30N 38°30' W 008°51'0 0.0
2017-Oct-12 09:57N 38°30' W 008°51'0 0.0
2017-Oct-12 09:24N 38°30' W 008°51'0 0.0
2017-Oct-12 09:00N 38°30' W 008°51'0 0.0
2017-Oct-12 08:30N 38°30' W 008°51'0 0.0
2017-Oct-12 07:57N 38°30' W 008°51'0 0.0
2017-Oct-12 07:24N 38°30' W 008°51'0 0.0
2017-Oct-12 06:51N 38°30' W 008°51'0 0.0
2017-Oct-12 06:27N 38°30' W 008°51'0 0.0
2017-Oct-12 05:57N 38°30' W 008°51'0 0.0
2017-Oct-12 05:27N 38°30' W 008°51'0 0.0
2017-Oct-12 05:00N 38°30' W 008°51'0 0.0
2017-Oct-12 04:15N 38°30' W 008°51'0 0.0
2017-Oct-12 03:54N 38°30' W 008°51'0 0.0
2017-Oct-12 02:36N 38°30' W 008°51'0 0.0
2017-Oct-12 02:24N 38°30' W 008°51'0 0.0
2017-Oct-12 00:54N 38°30' W 008°51'0 0.0
2017-Oct-12 00:27N 38°30' W 008°51'0 0.0
2017-Oct-11 23:54N 38°30' W 008°51'0 0.0
2017-Oct-11 23:30N 38°30' W 008°51'0 0.0
2017-Oct-11 23:00N 38°30' W 008°51'0 0.0
2017-Oct-11 22:30N 38°30' W 008°51'0 0.0
2017-Oct-11 22:00N 38°30' W 008°51'0 0.0
2017-Oct-11 21:27N 38°30' W 008°51'0 0.0
2017-Oct-11 21:00N 38°30' W 008°51'0 0.0
2017-Oct-11 20:27N 38°30' W 008°51'0 0.0
2017-Oct-11 19:56N 38°30' W 008°51'0 0.0
2017-Oct-11 19:17N 38°30' W 008°51'0 0.0
2017-Oct-11 18:59N 38°30' W 008°51'0 0.0
2017-Oct-11 18:29N 38°30' W 008°51'0 0.0
2017-Oct-11 17:59N 38°30' W 008°51'0 0.0
2017-Oct-11 17:29N 38°30' W 008°51'0 0.0
2017-Oct-11 16:59N 38°30' W 008°51'3 0.2
2017-Oct-11 00:00N 38°31' W 008°54'0 0.1
2017-Oct-10 23:30N 38°31' W 008°54'0 0.0
2017-Oct-10 23:00N 38°31' W 008°54'0 0.0
2017-Oct-10 22:30N 38°31' W 008°54'0 0.0
2017-Oct-10 21:57N 38°31' W 008°54'0 0.0
2017-Oct-10 21:27N 38°31' W 008°54'0 0.0
2017-Oct-10 21:00N 38°31' W 008°54'0 0.0
2017-Oct-10 20:30N 38°31' W 008°54'0 0.0
2017-Oct-10 20:00N 38°31' W 008°54'0 0.0
2017-Oct-10 19:30N 38°31' W 008°54'3 6.3
2017-Oct-10 19:01N 38°29' W 008°57'4 8.2
2017-Oct-10 18:31N 38°25' W 008°59'2 3.8
2017-Oct-10 18:01N 38°23' W 008°60'510.0
2017-Oct-10 17:31N 38°18' W 009°01'510.6
2017-Oct-10 17:01N 38°13' W 009°03'510.9
2017-Oct-10 16:31N 38°08' W 009°04'510.5
2017-Oct-10 16:01N 38°03' W 009°05'510.4
2017-Oct-10 15:30N 37°57' W 009°07'510.4
2017-Oct-10 15:01N 37°52' W 009°08'1010.5
2017-Oct-10 14:01N 37°42' W 009°10'510.8
2017-Oct-10 13:31N 37°37' W 009°12'510.9
2017-Oct-10 13:00N 37°31' W 009°13'510.4
2017-Oct-10 12:30N 37°26' W 009°14'510.3
2017-Oct-10 12:01N 37°21' W 009°16'510.3
2017-Oct-10 11:31N 37°16' W 009°17'510.4
2017-Oct-10 11:00N 37°11' W 009°18'510.4
2017-Oct-10 10:31N 37°06' W 009°19'510.8
2017-Oct-10 10:01N 37°01' W 009°20'510.6
2017-Oct-10 09:31N 36°55' W 009°18'510.1
2017-Oct-10 09:01N 36°51' W 009°15'5 9.8
2017-Oct-10 08:30N 36°48' W 009°11'510.8
2017-Oct-10 08:00N 36°44' W 009°06'510.8
2017-Oct-10 07:30N 36°42' W 008°59'611.0
2017-Oct-10 07:00N 36°40' W 008°53'510.8
2017-Oct-10 06:30N 36°39' W 008°47'511.0
2017-Oct-10 06:01N 36°37' W 008°40'611.1
2017-Oct-10 05:30N 36°36' W 008°33'611.0
2017-Oct-10 04:56N 36°34' W 008°26'511.1
2017-Oct-10 04:30N 36°33' W 008°20'511.0
2017-Oct-10 04:00N 36°32' W 008°13'610.9
2017-Oct-10 03:30N 36°30' W 008°07'511.1
2017-Oct-10 03:00N 36°29' W 008°00'611.3
2017-Oct-10 02:30N 36°27' W 007°53'611.1
2017-Oct-10 01:59N 36°26' W 007°46'611.2
2017-Oct-10 01:27N 36°24' W 007°39'511.2
2017-Oct-10 00:59N 36°23' W 007°33'  
2017-Oct-07 10:58N 37°23' W 000°52'510.0
2017-Oct-07 10:29N 37°26' W 000°48'710.0
2017-Oct-07 09:49N 37°30' W 000°41'3 9.8
2017-Oct-07 09:28N 37°32' W 000°38'4 9.6
2017-Oct-07 09:00N 37°35' W 000°34'5 9.7
2017-Oct-07 08:30N 37°39' W 000°30'5 9.8
2017-Oct-07 08:00N 37°43' W 000°27'65 1.6
2017-Oct-05 14:47N 38°35' E 000°22'411.6
2017-Oct-05 14:27N 38°32' E 000°19'511.4
2017-Oct-05 14:00N 38°28' E 000°16'5310.9
2017-Oct-05 09:09N 37°44' W 000°22'110.3
2017-Oct-05 09:00N 37°43' W 000°23'510.8
2017-Oct-05 08:30N 37°38' W 000°26'510.7
2017-Oct-05 08:00N 37°34' W 000°31'610.8
2017-Oct-05 07:29N 37°30' W 000°36'510.7
2017-Oct-05 06:58N 37°26' W 000°41'510.6
2017-Oct-05 06:30N 37°23' W 000°45'610.6
2017-Oct-05 05:57N 37°19' W 000°51'510.5
2017-Oct-05 05:29N 37°16' W 000°55'  

Dump ship's entire track history